Ismailia, Egypt
Current Conditions -  °F | °C
As of 3:00 AM on Wednesday 28 Jan 2015 (Local Time) from HEPS Reporting Station
Clear Clear  
Wind Chill: 16°   Ceiling: Unl
Heat Index: 16°   Visibility: 6mi
Dew Point: 13°   Wind: 9mph
Humidity: 82%   Direction: 340°NNW
Pressure: 29.91"   Gusts: NA
Location:  30.59°N, 32.26°E
Report Text: HEPS 280100Z 34008KT CAVOK 16/13 Q1013 NOSIG
Loading
Personal Weather Stations






























Interactive Weather Map New forecast layout! Learn more

10-Day Weather Forecast

Advertisements
Track Severe Weather on mobile